sensor_id;sensor_type;location;lat;lon;timestamp;temperature;humidity
62555;DHT22;48610;52.144;8.624;2023-05-07T00:01:16;13.20;99.90
62555;DHT22;48610;52.144;8.624;2023-05-07T00:04:17;13.20;99.90
62555;DHT22;48610;52.144;8.624;2023-05-07T00:07:18;13.10;99.90
62555;DHT22;48610;52.144;8.624;2023-05-07T00:10:19;13.10;99.90
62555;DHT22;48610;52.144;8.624;2023-05-07T00:13:19;13.10;99.90
62555;DHT22;48610;52.144;8.624;2023-05-07T00:16:20;13.00;99.90
62555;DHT22;48610;52.144;8.624;2023-05-07T00:19:20;13.00;99.90
62555;DHT22;48610;52.144;8.624;2023-05-07T00:22:21;13.10;99.90
62555;DHT22;48610;52.144;8.624;2023-05-07T00:25:22;13.10;99.90
62555;DHT22;48610;52.144;8.624;2023-05-07T00:28:22;13.20;99.90
62555;DHT22;48610;52.144;8.624;2023-05-07T00:31:23;13.20;99.90
62555;DHT22;48610;52.144;8.624;2023-05-07T00:34:23;13.00;99.90
62555;DHT22;48610;52.144;8.624;2023-05-07T00:37:24;13.00;99.90
62555;DHT22;48610;52.144;8.624;2023-05-07T00:40:25;13.00;99.90
62555;DHT22;48610;52.144;8.624;2023-05-07T00:43:26;13.10;99.90
62555;DHT22;48610;52.144;8.624;2023-05-07T00:46:28;13.00;99.90
62555;DHT22;48610;52.144;8.624;2023-05-07T00:49:39;13.00;99.90
62555;DHT22;48610;52.144;8.624;2023-05-07T00:52:41;12.90;99.90
62555;DHT22;48610;52.144;8.624;2023-05-07T00:55:42;12.80;99.90
62555;DHT22;48610;52.144;8.624;2023-05-07T00:58:43;12.80;99.90
62555;DHT22;48610;52.144;8.624;2023-05-07T01:01:44;12.80;99.90
62555;DHT22;48610;52.144;8.624;2023-05-07T01:04:44;12.60;99.90
62555;DHT22;48610;52.144;8.624;2023-05-07T01:07:46;12.60;99.90
62555;DHT22;48610;52.144;8.624;2023-05-07T01:10:47;12.70;99.90
62555;DHT22;48610;52.144;8.624;2023-05-07T01:13:49;12.80;99.90
62555;DHT22;48610;52.144;8.624;2023-05-07T01:16:50;12.80;99.90
62555;DHT22;48610;52.144;8.624;2023-05-07T01:19:51;12.60;99.90
62555;DHT22;48610;52.144;8.624;2023-05-07T01:22:53;12.70;99.90
62555;DHT22;48610;52.144;8.624;2023-05-07T01:25:54;12.80;99.90
62555;DHT22;48610;52.144;8.624;2023-05-07T01:28:55;12.60;99.90
62555;DHT22;48610;52.144;8.624;2023-05-07T01:32:00;12.70;99.90
62555;DHT22;48610;52.144;8.624;2023-05-07T01:35:03;12.60;99.90
62555;DHT22;48610;52.144;8.624;2023-05-07T01:38:05;12.60;99.90
62555;DHT22;48610;52.144;8.624;2023-05-07T01:41:07;12.60;99.90
62555;DHT22;48610;52.144;8.624;2023-05-07T01:44:08;12.60;99.90
62555;DHT22;48610;52.144;8.624;2023-05-07T01:47:10;12.70;99.90
62555;DHT22;48610;52.144;8.624;2023-05-07T01:50:12;12.70;99.90
62555;DHT22;48610;52.144;8.624;2023-05-07T01:53:12;12.60;99.90
62555;DHT22;48610;52.144;8.624;2023-05-07T01:56:13;12.50;99.90
62555;DHT22;48610;52.144;8.624;2023-05-07T01:59:14;12.40;99.90
62555;DHT22;48610;52.144;8.624;2023-05-07T02:02:14;12.60;99.90
62555;DHT22;48610;52.144;8.624;2023-05-07T02:05:15;12.60;99.90
62555;DHT22;48610;52.144;8.624;2023-05-07T02:08:16;12.70;99.90
62555;DHT22;48610;52.144;8.624;2023-05-07T02:11:16;12.60;99.90
62555;DHT22;48610;52.144;8.624;2023-05-07T02:14:17;12.40;99.90
62555;DHT22;48610;52.144;8.624;2023-05-07T02:17:18;12.40;99.90
62555;DHT22;48610;52.144;8.624;2023-05-07T02:20:18;12.50;99.90
62555;DHT22;48610;52.144;8.624;2023-05-07T02:23:19;12.30;99.90
62555;DHT22;48610;52.144;8.624;2023-05-07T02:26:20;12.40;99.90
62555;DHT22;48610;52.144;8.624;2023-05-07T02:29:21;12.40;99.90
62555;DHT22;48610;52.144;8.624;2023-05-07T02:32:22;12.30;99.90
62555;DHT22;48610;52.144;8.624;2023-05-07T02:35:24;12.40;99.90
62555;DHT22;48610;52.144;8.624;2023-05-07T02:38:25;12.30;99.90
62555;DHT22;48610;52.144;8.624;2023-05-07T02:41:25;12.30;99.90
62555;DHT22;48610;52.144;8.624;2023-05-07T02:44:26;12.20;99.90
62555;DHT22;48610;52.144;8.624;2023-05-07T02:47:26;12.30;99.90
62555;DHT22;48610;52.144;8.624;2023-05-07T02:50:28;12.20;99.90
62555;DHT22;48610;52.144;8.624;2023-05-07T02:53:29;12.20;99.90
62555;DHT22;48610;52.144;8.624;2023-05-07T02:56:29;12.30;99.90
62555;DHT22;48610;52.144;8.624;2023-05-07T02:59:30;12.30;99.90
62555;DHT22;48610;52.144;8.624;2023-05-07T03:02:31;12.20;99.90
62555;DHT22;48610;52.144;8.624;2023-05-07T03:05:31;12.20;99.90
62555;DHT22;48610;52.144;8.624;2023-05-07T03:08:32;12.20;99.90
62555;DHT22;48610;52.144;8.624;2023-05-07T03:11:33;12.30;99.90
62555;DHT22;48610;52.144;8.624;2023-05-07T03:14:33;11.90;99.90
62555;DHT22;48610;52.144;8.624;2023-05-07T03:17:34;12.10;99.90
62555;DHT22;48610;52.144;8.624;2023-05-07T03:20:35;12.00;99.90
62555;DHT22;48610;52.144;8.624;2023-05-07T03:23:36;12.00;99.90
62555;DHT22;48610;52.144;8.624;2023-05-07T03:26:37;12.20;99.90
62555;DHT22;48610;52.144;8.624;2023-05-07T03:29:38;12.10;99.90
62555;DHT22;48610;52.144;8.624;2023-05-07T03:32:38;12.10;99.90
62555;DHT22;48610;52.144;8.624;2023-05-07T03:35:39;12.00;99.90
62555;DHT22;48610;52.144;8.624;2023-05-07T03:38:39;12.10;99.90
62555;DHT22;48610;52.144;8.624;2023-05-07T03:41:40;12.10;99.90
62555;DHT22;48610;52.144;8.624;2023-05-07T03:44:41;12.20;99.90
62555;DHT22;48610;52.144;8.624;2023-05-07T03:47:41;12.10;99.90
62555;DHT22;48610;52.144;8.624;2023-05-07T03:50:42;12.00;99.90
62555;DHT22;48610;52.144;8.624;2023-05-07T03:53:42;12.10;99.90
62555;DHT22;48610;52.144;8.624;2023-05-07T03:56:43;12.10;99.90
62555;DHT22;48610;52.144;8.624;2023-05-07T03:59:43;12.00;99.90
62555;DHT22;48610;52.144;8.624;2023-05-07T04:02:44;12.10;99.90
62555;DHT22;48610;52.144;8.624;2023-05-07T04:05:45;12.20;99.90
62555;DHT22;48610;52.144;8.624;2023-05-07T04:08:46;12.00;99.90
62555;DHT22;48610;52.144;8.624;2023-05-07T04:11:46;11.90;99.90
62555;DHT22;48610;52.144;8.624;2023-05-07T04:14:47;11.90;99.90
62555;DHT22;48610;52.144;8.624;2023-05-07T04:17:47;11.90;99.90
62555;DHT22;48610;52.144;8.624;2023-05-07T04:20:48;12.00;99.90
62555;DHT22;48610;52.144;8.624;2023-05-07T04:23:50;12.10;99.90
62555;DHT22;48610;52.144;8.624;2023-05-07T04:26:50;12.00;99.90
62555;DHT22;48610;52.144;8.624;2023-05-07T04:29:51;12.10;99.90
62555;DHT22;48610;52.144;8.624;2023-05-07T04:32:52;12.00;99.90
62555;DHT22;48610;52.144;8.624;2023-05-07T04:35:53;12.00;99.90
62555;DHT22;48610;52.144;8.624;2023-05-07T04:38:53;12.00;99.90
62555;DHT22;48610;52.144;8.624;2023-05-07T04:41:54;12.10;99.90
62555;DHT22;48610;52.144;8.624;2023-05-07T04:44:55;12.00;99.90
62555;DHT22;48610;52.144;8.624;2023-05-07T04:47:55;12.10;99.90
62555;DHT22;48610;52.144;8.624;2023-05-07T04:50:56;12.00;99.90
62555;DHT22;48610;52.144;8.624;2023-05-07T04:53:57;11.80;99.90
62555;DHT22;48610;52.144;8.624;2023-05-07T04:56:57;12.00;99.90
62555;DHT22;48610;52.144;8.624;2023-05-07T04:59:58;12.10;99.90
62555;DHT22;48610;52.144;8.624;2023-05-07T05:02:58;12.30;99.90
62555;DHT22;48610;52.144;8.624;2023-05-07T05:05:59;12.30;99.90
62555;DHT22;48610;52.144;8.624;2023-05-07T05:09:00;12.30;99.90
62555;DHT22;48610;52.144;8.624;2023-05-07T05:12:00;12.30;99.90
62555;DHT22;48610;52.144;8.624;2023-05-07T05:15:02;12.30;99.90
62555;DHT22;48610;52.144;8.624;2023-05-07T05:18:03;12.50;99.90
62555;DHT22;48610;52.144;8.624;2023-05-07T05:21:03;12.40;99.90
62555;DHT22;48610;52.144;8.624;2023-05-07T05:24:04;12.40;99.90
62555;DHT22;48610;52.144;8.624;2023-05-07T05:27:05;12.40;99.90
62555;DHT22;48610;52.144;8.624;2023-05-07T05:30:06;12.40;99.90
62555;DHT22;48610;52.144;8.624;2023-05-07T05:33:07;12.30;99.90
62555;DHT22;48610;52.144;8.624;2023-05-07T05:36:09;12.30;99.90
62555;DHT22;48610;52.144;8.624;2023-05-07T05:39:10;12.30;99.90
62555;DHT22;48610;52.144;8.624;2023-05-07T05:42:10;12.40;99.90
62555;DHT22;48610;52.144;8.624;2023-05-07T05:45:11;12.30;99.90
62555;DHT22;48610;52.144;8.624;2023-05-07T05:48:11;12.40;99.90
62555;DHT22;48610;52.144;8.624;2023-05-07T05:51:12;12.40;99.90
62555;DHT22;48610;52.144;8.624;2023-05-07T05:54:12;12.40;99.90
62555;DHT22;48610;52.144;8.624;2023-05-07T05:57:13;12.50;99.90
62555;DHT22;48610;52.144;8.624;2023-05-07T06:00:14;12.60;99.90
62555;DHT22;48610;52.144;8.624;2023-05-07T06:03:15;12.50;99.90
62555;DHT22;48610;52.144;8.624;2023-05-07T06:06:15;12.60;99.90
62555;DHT22;48610;52.144;8.624;2023-05-07T06:09:16;12.50;99.90
62555;DHT22;48610;52.144;8.624;2023-05-07T06:12:16;12.60;99.90
62555;DHT22;48610;52.144;8.624;2023-05-07T06:15:17;12.70;99.90
62555;DHT22;48610;52.144;8.624;2023-05-07T06:18:17;12.80;99.90
62555;DHT22;48610;52.144;8.624;2023-05-07T06:21:18;12.90;99.90
62555;DHT22;48610;52.144;8.624;2023-05-07T06:24:19;12.80;99.90
62555;DHT22;48610;52.144;8.624;2023-05-07T06:27:19;12.70;99.90
62555;DHT22;48610;52.144;8.624;2023-05-07T06:30:20;12.70;99.90
62555;DHT22;48610;52.144;8.624;2023-05-07T06:33:21;12.90;99.90
62555;DHT22;48610;52.144;8.624;2023-05-07T06:36:21;12.90;99.90
62555;DHT22;48610;52.144;8.624;2023-05-07T06:39:22;12.80;99.90
62555;DHT22;48610;52.144;8.624;2023-05-07T06:42:22;12.70;99.90
62555;DHT22;48610;52.144;8.624;2023-05-07T06:45:23;12.70;99.90
62555;DHT22;48610;52.144;8.624;2023-05-07T06:48:25;12.80;99.90
62555;DHT22;48610;52.144;8.624;2023-05-07T06:51:25;12.80;99.90
62555;DHT22;48610;52.144;8.624;2023-05-07T06:54:27;12.80;99.90
62555;DHT22;48610;52.144;8.624;2023-05-07T06:57:27;12.70;99.90
62555;DHT22;48610;52.144;8.624;2023-05-07T07:00:28;12.80;99.90
62555;DHT22;48610;52.144;8.624;2023-05-07T07:03:28;12.90;99.90
62555;DHT22;48610;52.144;8.624;2023-05-07T07:06:29;13.00;99.90
62555;DHT22;48610;52.144;8.624;2023-05-07T07:09:31;13.10;99.90
62555;DHT22;48610;52.144;8.624;2023-05-07T07:12:32;13.20;99.90
62555;DHT22;48610;52.144;8.624;2023-05-07T07:15:33;13.40;99.90
62555;DHT22;48610;52.144;8.624;2023-05-07T07:18:33;13.30;99.90
62555;DHT22;48610;52.144;8.624;2023-05-07T07:21:34;13.30;99.90
62555;DHT22;48610;52.144;8.624;2023-05-07T07:24:34;13.40;99.90
62555;DHT22;48610;52.144;8.624;2023-05-07T07:27:36;13.60;99.90
62555;DHT22;48610;52.144;8.624;2023-05-07T07:30:37;13.70;99.90
62555;DHT22;48610;52.144;8.624;2023-05-07T07:33:38;13.90;99.90
62555;DHT22;48610;52.144;8.624;2023-05-07T07:36:38;14.20;99.90
62555;DHT22;48610;52.144;8.624;2023-05-07T07:39:39;14.20;99.90
62555;DHT22;48610;52.144;8.624;2023-05-07T07:42:40;14.00;99.90
62555;DHT22;48610;52.144;8.624;2023-05-07T07:45:40;14.00;99.90
62555;DHT22;48610;52.144;8.624;2023-05-07T07:48:41;13.80;99.90
62555;DHT22;48610;52.144;8.624;2023-05-07T07:51:42;13.80;99.90
62555;DHT22;48610;52.144;8.624;2023-05-07T07:54:43;13.90;99.90
62555;DHT22;48610;52.144;8.624;2023-05-07T07:57:43;14.10;99.90
62555;DHT22;48610;52.144;8.624;2023-05-07T08:00:44;14.10;99.90
62555;DHT22;48610;52.144;8.624;2023-05-07T08:03:44;14.00;99.90
62555;DHT22;48610;52.144;8.624;2023-05-07T08:06:45;14.00;99.90
62555;DHT22;48610;52.144;8.624;2023-05-07T08:09:46;14.20;99.90
62555;DHT22;48610;52.144;8.624;2023-05-07T08:12:48;14.20;99.90
62555;DHT22;48610;52.144;8.624;2023-05-07T08:15:49;14.40;99.90
62555;DHT22;48610;52.144;8.624;2023-05-07T08:18:50;14.60;99.90
62555;DHT22;48610;52.144;8.624;2023-05-07T08:21:51;14.60;99.90
62555;DHT22;48610;52.144;8.624;2023-05-07T08:24:51;14.40;99.90
62555;DHT22;48610;52.144;8.624;2023-05-07T08:27:53;14.50;99.90
62555;DHT22;48610;52.144;8.624;2023-05-07T08:30:54;14.60;99.90
62555;DHT22;48610;52.144;8.624;2023-05-07T08:33:57;14.60;99.90
62555;DHT22;48610;52.144;8.624;2023-05-07T08:36:58;14.60;99.90
62555;DHT22;48610;52.144;8.624;2023-05-07T08:39:59;14.80;99.90
62555;DHT22;48610;52.144;8.624;2023-05-07T08:43:00;14.50;99.90
62555;DHT22;48610;52.144;8.624;2023-05-07T08:46:01;14.60;99.90
62555;DHT22;48610;52.144;8.624;2023-05-07T08:49:02;14.60;99.90
62555;DHT22;48610;52.144;8.624;2023-05-07T08:52:03;14.60;99.90
62555;DHT22;48610;52.144;8.624;2023-05-07T08:55:04;14.40;99.90
62555;DHT22;48610;52.144;8.624;2023-05-07T08:58:05;14.60;99.90
62555;DHT22;48610;52.144;8.624;2023-05-07T09:01:12;14.80;99.90
62555;DHT22;48610;52.144;8.624;2023-05-07T09:04:13;14.60;99.90
62555;DHT22;48610;52.144;8.624;2023-05-07T09:07:14;14.50;99.90
62555;DHT22;48610;52.144;8.624;2023-05-07T09:10:14;14.50;99.90
62555;DHT22;48610;52.144;8.624;2023-05-07T09:13:15;14.60;99.90
62555;DHT22;48610;52.144;8.624;2023-05-07T09:16:20;14.70;99.90
62555;DHT22;48610;52.144;8.624;2023-05-07T09:19:23;14.80;99.90
62555;DHT22;48610;52.144;8.624;2023-05-07T09:22:24;14.80;99.90
62555;DHT22;48610;52.144;8.624;2023-05-07T09:25:32;14.90;99.90
62555;DHT22;48610;52.144;8.624;2023-05-07T09:28:33;14.80;99.90
62555;DHT22;48610;52.144;8.624;2023-05-07T09:31:37;14.90;99.90
62555;DHT22;48610;52.144;8.624;2023-05-07T09:34:38;15.10;99.90
62555;DHT22;48610;52.144;8.624;2023-05-07T09:37:38;15.10;99.90
62555;DHT22;48610;52.144;8.624;2023-05-07T09:40:41;15.10;99.90
62555;DHT22;48610;52.144;8.624;2023-05-07T09:43:42;15.30;99.90
62555;DHT22;48610;52.144;8.624;2023-05-07T09:46:44;15.30;99.90
62555;DHT22;48610;52.144;8.624;2023-05-07T09:49:47;15.50;99.90
62555;DHT22;48610;52.144;8.624;2023-05-07T09:52:48;15.70;99.90
62555;DHT22;48610;52.144;8.624;2023-05-07T09:55:49;15.80;99.90
62555;DHT22;48610;52.144;8.624;2023-05-07T09:58:53;15.80;99.90
62555;DHT22;48610;52.144;8.624;2023-05-07T10:01:57;16.00;99.90
62555;DHT22;48610;52.144;8.624;2023-05-07T10:04:58;16.00;99.90
62555;DHT22;48610;52.144;8.624;2023-05-07T10:08:00;15.90;99.90
62555;DHT22;48610;52.144;8.624;2023-05-07T10:11:02;16.10;99.90
62555;DHT22;48610;52.144;8.624;2023-05-07T10:14:04;16.00;99.90
62555;DHT22;48610;52.144;8.624;2023-05-07T10:17:08;16.20;99.90
62555;DHT22;48610;52.144;8.624;2023-05-07T10:20:09;16.40;99.90
62555;DHT22;48610;52.144;8.624;2023-05-07T10:23:13;16.20;99.90
62555;DHT22;48610;52.144;8.624;2023-05-07T10:26:15;16.10;99.90
62555;DHT22;48610;52.144;8.624;2023-05-07T10:35:31;16.40;99.90
62555;DHT22;48610;52.144;8.624;2023-05-07T10:38:33;16.30;99.90
62555;DHT22;48610;52.144;8.624;2023-05-07T10:41:34;16.30;99.90
62555;DHT22;48610;52.144;8.624;2023-05-07T10:44:35;16.40;99.90
62555;DHT22;48610;52.144;8.624;2023-05-07T10:51:28;16.80;99.90
62555;DHT22;48610;52.144;8.624;2023-05-07T10:54:29;16.80;99.90
62555;DHT22;48610;52.144;8.624;2023-05-07T10:57:36;16.80;99.90
62555;DHT22;48610;52.144;8.624;2023-05-07T11:04:13;17.30;99.90
62555;DHT22;48610;52.144;8.624;2023-05-07T11:07:28;17.70;99.90
62555;DHT22;48610;52.144;8.624;2023-05-07T11:10:55;17.90;99.90
62555;DHT22;48610;52.144;8.624;2023-05-07T11:13:56;18.20;99.90
62555;DHT22;48610;52.144;8.624;2023-05-07T11:17:02;17.80;99.90
62555;DHT22;48610;52.144;8.624;2023-05-07T11:20:03;17.90;99.90
62555;DHT22;48610;52.144;8.624;2023-05-07T11:23:07;18.20;99.90
62555;DHT22;48610;52.144;8.624;2023-05-07T11:26:09;18.50;99.90
62555;DHT22;48610;52.144;8.624;2023-05-07T11:29:18;18.00;99.90
62555;DHT22;48610;52.144;8.624;2023-05-07T11:32:23;17.70;99.90
62555;DHT22;48610;52.144;8.624;2023-05-07T11:35:24;17.60;99.90
62555;DHT22;48610;52.144;8.624;2023-05-07T11:38:25;17.70;99.90
62555;DHT22;48610;52.144;8.624;2023-05-07T11:41:36;18.00;99.90
62555;DHT22;48610;52.144;8.624;2023-05-07T11:44:43;18.20;99.90
62555;DHT22;48610;52.144;8.624;2023-05-07T11:47:44;18.40;99.90
62555;DHT22;48610;52.144;8.624;2023-05-07T11:50:52;18.40;99.90
62555;DHT22;48610;52.144;8.624;2023-05-07T11:53:53;18.40;99.90
62555;DHT22;48610;52.144;8.624;2023-05-07T11:56:56;17.70;99.90
62555;DHT22;48610;52.144;8.624;2023-05-07T11:59:58;17.80;99.90
62555;DHT22;48610;52.144;8.624;2023-05-07T12:03:06;17.90;99.90
62555;DHT22;48610;52.144;8.624;2023-05-07T12:06:06;17.80;99.90
62555;DHT22;48610;52.144;8.624;2023-05-07T12:09:07;18.10;99.90
62555;DHT22;48610;52.144;8.624;2023-05-07T12:12:12;18.40;99.90
62555;DHT22;48610;52.144;8.624;2023-05-07T12:15:22;18.20;99.90
62555;DHT22;48610;52.144;8.624;2023-05-07T12:18:23;18.20;99.90
62555;DHT22;48610;52.144;8.624;2023-05-07T12:21:25;18.20;99.90
62555;DHT22;48610;52.144;8.624;2023-05-07T12:24:25;18.20;99.90
62555;DHT22;48610;52.144;8.624;2023-05-07T12:27:26;17.80;99.90
62555;DHT22;48610;52.144;8.624;2023-05-07T12:30:27;18.10;99.90
62555;DHT22;48610;52.144;8.624;2023-05-07T12:33:27;18.20;99.90
62555;DHT22;48610;52.144;8.624;2023-05-07T12:36:39;18.10;99.90
62555;DHT22;48610;52.144;8.624;2023-05-07T12:40:03;18.20;99.90
62555;DHT22;48610;52.144;8.624;2023-05-07T12:43:04;18.00;99.90
62555;DHT22;48610;52.144;8.624;2023-05-07T12:46:06;18.10;99.90
62555;DHT22;48610;52.144;8.624;2023-05-07T12:49:07;18.10;99.90
62555;DHT22;48610;52.144;8.624;2023-05-07T12:52:08;18.40;99.90
62555;DHT22;48610;52.144;8.624;2023-05-07T12:55:09;18.20;99.90
62555;DHT22;48610;52.144;8.624;2023-05-07T12:58:23;18.00;99.90
62555;DHT22;48610;52.144;8.624;2023-05-07T13:01:29;17.90;99.90
62555;DHT22;48610;52.144;8.624;2023-05-07T13:04:30;17.50;99.90
62555;DHT22;48610;52.144;8.624;2023-05-07T13:07:31;17.30;99.90
62555;DHT22;48610;52.144;8.624;2023-05-07T13:10:32;17.50;99.90
62555;DHT22;48610;52.144;8.624;2023-05-07T13:13:35;18.00;99.90
62555;DHT22;48610;52.144;8.624;2023-05-07T13:16:36;18.30;99.90
62555;DHT22;48610;52.144;8.624;2023-05-07T13:19:36;18.30;99.90
62555;DHT22;48610;52.144;8.624;2023-05-07T13:22:38;18.10;99.90
62555;DHT22;48610;52.144;8.624;2023-05-07T13:25:38;18.10;99.90
62555;DHT22;48610;52.144;8.624;2023-05-07T13:28:39;18.00;99.90
62555;DHT22;48610;52.144;8.624;2023-05-07T13:31:39;17.70;99.90
62555;DHT22;48610;52.144;8.624;2023-05-07T13:34:44;17.60;99.90
62555;DHT22;48610;52.144;8.624;2023-05-07T13:37:44;17.60;99.90
62555;DHT22;48610;52.144;8.624;2023-05-07T13:40:45;17.80;99.90
62555;DHT22;48610;52.144;8.624;2023-05-07T13:43:46;17.80;99.90
62555;DHT22;48610;52.144;8.624;2023-05-07T13:46:46;18.00;99.90
62555;DHT22;48610;52.144;8.624;2023-05-07T13:49:47;18.20;99.90
62555;DHT22;48610;52.144;8.624;2023-05-07T13:52:49;18.50;99.90
62555;DHT22;48610;52.144;8.624;2023-05-07T13:55:53;18.40;99.90
62555;DHT22;48610;52.144;8.624;2023-05-07T13:58:53;18.50;99.90
62555;DHT22;48610;52.144;8.624;2023-05-07T14:01:54;18.50;99.90
62555;DHT22;48610;52.144;8.624;2023-05-07T14:04:55;18.50;99.90
62555;DHT22;48610;52.144;8.624;2023-05-07T14:07:58;18.40;99.90
62555;DHT22;48610;52.144;8.624;2023-05-07T14:10:59;18.50;99.90
62555;DHT22;48610;52.144;8.624;2023-05-07T14:14:00;18.30;99.90
62555;DHT22;48610;52.144;8.624;2023-05-07T14:17:00;18.40;99.90
62555;DHT22;48610;52.144;8.624;2023-05-07T14:20:01;18.50;99.90
62555;DHT22;48610;52.144;8.624;2023-05-07T14:23:02;18.60;99.90
62555;DHT22;48610;52.144;8.624;2023-05-07T14:26:02;18.40;99.90
62555;DHT22;48610;52.144;8.624;2023-05-07T14:29:03;18.70;99.90
62555;DHT22;48610;52.144;8.624;2023-05-07T14:32:04;18.50;99.90
62555;DHT22;48610;52.144;8.624;2023-05-07T14:35:04;18.30;99.90
62555;DHT22;48610;52.144;8.624;2023-05-07T14:38:05;18.50;99.90
62555;DHT22;48610;52.144;8.624;2023-05-07T14:41:06;18.80;99.90
62555;DHT22;48610;52.144;8.624;2023-05-07T14:44:06;18.50;99.90
62555;DHT22;48610;52.144;8.624;2023-05-07T14:47:07;18.40;99.90
62555;DHT22;48610;52.144;8.624;2023-05-07T14:50:08;18.30;99.90
62555;DHT22;48610;52.144;8.624;2023-05-07T14:53:09;18.40;99.90
62555;DHT22;48610;52.144;8.624;2023-05-07T14:56:09;18.20;99.90
62555;DHT22;48610;52.144;8.624;2023-05-07T14:59:10;18.20;99.90
62555;DHT22;48610;52.144;8.624;2023-05-07T15:02:11;18.00;99.90
62555;DHT22;48610;52.144;8.624;2023-05-07T15:05:12;18.00;99.90
62555;DHT22;48610;52.144;8.624;2023-05-07T15:08:14;18.20;99.90
62555;DHT22;48610;52.144;8.624;2023-05-07T15:11:15;18.10;99.90
62555;DHT22;48610;52.144;8.624;2023-05-07T15:14:16;18.00;99.90
62555;DHT22;48610;52.144;8.624;2023-05-07T15:17:17;17.80;99.90
62555;DHT22;48610;52.144;8.624;2023-05-07T15:20:17;17.60;99.90
62555;DHT22;48610;52.144;8.624;2023-05-07T15:23:18;17.60;99.90
62555;DHT22;48610;52.144;8.624;2023-05-07T15:26:19;17.70;99.90
62555;DHT22;48610;52.144;8.624;2023-05-07T15:29:20;17.80;99.90
62555;DHT22;48610;52.144;8.624;2023-05-07T15:32:21;17.60;99.90
62555;DHT22;48610;52.144;8.624;2023-05-07T15:35:22;17.50;99.90
62555;DHT22;48610;52.144;8.624;2023-05-07T15:38:23;17.70;99.90
62555;DHT22;48610;52.144;8.624;2023-05-07T15:41:24;17.70;99.90
62555;DHT22;48610;52.144;8.624;2023-05-07T15:44:25;17.70;99.90
62555;DHT22;48610;52.144;8.624;2023-05-07T15:47:32;17.70;99.90
62555;DHT22;48610;52.144;8.624;2023-05-07T15:50:34;17.40;99.90
62555;DHT22;48610;52.144;8.624;2023-05-07T15:53:34;17.40;99.90
62555;DHT22;48610;52.144;8.624;2023-05-07T15:56:35;17.20;99.90
62555;DHT22;48610;52.144;8.624;2023-05-07T15:59:36;17.30;99.90
62555;DHT22;48610;52.144;8.624;2023-05-07T16:02:37;17.30;99.90
62555;DHT22;48610;52.144;8.624;2023-05-07T16:05:37;17.50;99.90
62555;DHT22;48610;52.144;8.624;2023-05-07T16:08:38;17.50;99.90
62555;DHT22;48610;52.144;8.624;2023-05-07T16:11:39;17.40;99.90
62555;DHT22;48610;52.144;8.624;2023-05-07T16:14:40;17.10;99.90
62555;DHT22;48610;52.144;8.624;2023-05-07T16:17:40;17.00;99.90
62555;DHT22;48610;52.144;8.624;2023-05-07T16:20:42;16.90;99.90
62555;DHT22;48610;52.144;8.624;2023-05-07T16:23:43;17.00;99.90
62555;DHT22;48610;52.144;8.624;2023-05-07T16:26:43;16.90;99.90
62555;DHT22;48610;52.144;8.624;2023-05-07T16:29:44;16.90;99.90
62555;DHT22;48610;52.144;8.624;2023-05-07T16:32:45;16.80;99.90
62555;DHT22;48610;52.144;8.624;2023-05-07T16:35:53;16.70;99.90
62555;DHT22;48610;52.144;8.624;2023-05-07T16:38:54;16.70;99.90
62555;DHT22;48610;52.144;8.624;2023-05-07T16:41:55;16.60;99.90
62555;DHT22;48610;52.144;8.624;2023-05-07T16:44:55;16.70;99.90
62555;DHT22;48610;52.144;8.624;2023-05-07T16:47:56;16.60;99.90
62555;DHT22;48610;52.144;8.624;2023-05-07T16:50:57;16.60;99.90
62555;DHT22;48610;52.144;8.624;2023-05-07T16:53:58;16.80;99.90
62555;DHT22;48610;52.144;8.624;2023-05-07T16:56:59;16.50;99.90
62555;DHT22;48610;52.144;8.624;2023-05-07T16:59:59;16.60;99.90
62555;DHT22;48610;52.144;8.624;2023-05-07T17:03:01;16.70;99.90
62555;DHT22;48610;52.144;8.624;2023-05-07T17:06:02;16.70;99.90
62555;DHT22;48610;52.144;8.624;2023-05-07T17:09:02;16.60;99.90
62555;DHT22;48610;52.144;8.624;2023-05-07T17:12:03;16.40;99.90
62555;DHT22;48610;52.144;8.624;2023-05-07T17:15:04;16.50;99.90
62555;DHT22;48610;52.144;8.624;2023-05-07T17:18:05;16.50;99.90
62555;DHT22;48610;52.144;8.624;2023-05-07T17:21:06;16.60;99.90
62555;DHT22;48610;52.144;8.624;2023-05-07T17:24:06;16.50;99.90
62555;DHT22;48610;52.144;8.624;2023-05-07T17:27:07;16.50;99.90
62555;DHT22;48610;52.144;8.624;2023-05-07T17:30:08;16.60;99.90
62555;DHT22;48610;52.144;8.624;2023-05-07T17:33:09;16.60;99.90
62555;DHT22;48610;52.144;8.624;2023-05-07T17:36:09;16.50;99.90
62555;DHT22;48610;52.144;8.624;2023-05-07T17:39:10;16.50;99.90
62555;DHT22;48610;52.144;8.624;2023-05-07T17:42:11;16.50;99.90
62555;DHT22;48610;52.144;8.624;2023-05-07T17:45:11;16.30;99.90
62555;DHT22;48610;52.144;8.624;2023-05-07T17:48:12;16.00;99.90
62555;DHT22;48610;52.144;8.624;2023-05-07T17:51:12;15.80;99.90
62555;DHT22;48610;52.144;8.624;2023-05-07T17:54:13;15.80;99.90
62555;DHT22;48610;52.144;8.624;2023-05-07T17:57:13;15.80;99.90
62555;DHT22;48610;52.144;8.624;2023-05-07T18:00:14;15.70;99.90
62555;DHT22;48610;52.144;8.624;2023-05-07T18:03:15;15.50;99.90
62555;DHT22;48610;52.144;8.624;2023-05-07T18:06:16;15.50;99.90
62555;DHT22;48610;52.144;8.624;2023-05-07T18:09:21;15.50;99.90
62555;DHT22;48610;52.144;8.624;2023-05-07T18:12:21;15.40;99.90
62555;DHT22;48610;52.144;8.624;2023-05-07T18:15:22;15.30;99.90
62555;DHT22;48610;52.144;8.624;2023-05-07T18:18:23;15.10;99.90
62555;DHT22;48610;52.144;8.624;2023-05-07T18:21:25;15.20;99.90
62555;DHT22;48610;52.144;8.624;2023-05-07T18:24:26;15.00;99.90
62555;DHT22;48610;52.144;8.624;2023-05-07T18:27:27;15.00;99.90
62555;DHT22;48610;52.144;8.624;2023-05-07T18:30:27;15.00;99.90
62555;DHT22;48610;52.144;8.624;2023-05-07T18:33:28;14.90;99.90
62555;DHT22;48610;52.144;8.624;2023-05-07T18:36:28;14.90;99.90
62555;DHT22;48610;52.144;8.624;2023-05-07T18:39:30;14.80;99.90
62555;DHT22;48610;52.144;8.624;2023-05-07T18:42:31;14.50;99.90
62555;DHT22;48610;52.144;8.624;2023-05-07T18:45:34;14.50;99.90
62555;DHT22;48610;52.144;8.624;2023-05-07T18:48:37;14.50;99.90
62555;DHT22;48610;52.144;8.624;2023-05-07T18:51:37;14.50;99.90
62555;DHT22;48610;52.144;8.624;2023-05-07T18:54:38;14.50;99.90
62555;DHT22;48610;52.144;8.624;2023-05-07T18:57:39;14.50;99.90
62555;DHT22;48610;52.144;8.624;2023-05-07T19:00:40;14.50;99.90
62555;DHT22;48610;52.144;8.624;2023-05-07T19:03:40;14.50;99.90
62555;DHT22;48610;52.144;8.624;2023-05-07T19:06:41;14.40;99.90
62555;DHT22;48610;52.144;8.624;2023-05-07T19:09:42;14.40;99.90
62555;DHT22;48610;52.144;8.624;2023-05-07T19:12:42;14.50;99.90
62555;DHT22;48610;52.144;8.624;2023-05-07T19:15:43;14.30;99.90
62555;DHT22;48610;52.144;8.624;2023-05-07T19:18:43;14.10;99.90